createdAt,value
2022-08-25T00:01:42.681Z,1.33
2022-08-25T00:04:13.408Z,1.60
2022-08-25T00:06:42.618Z,1.40
2022-08-25T00:09:10.983Z,1.40
2022-08-25T00:11:39.594Z,1.30
2022-08-25T00:14:19.485Z,1.52
2022-08-25T00:16:47.302Z,1.50
2022-08-25T00:19:18.361Z,1.65
2022-08-25T00:21:46.111Z,1.33
2022-08-25T00:24:15.268Z,1.38
2022-08-25T00:26:44.694Z,1.52
2022-08-25T00:29:12.099Z,1.48
2022-08-25T00:31:40.001Z,1.90
2022-08-25T00:34:16.876Z,1.60
2022-08-25T00:36:44.025Z,1.70
2022-08-25T00:39:11.763Z,1.38
2022-08-25T00:41:40.599Z,1.70
2022-08-25T00:44:09.635Z,1.55
2022-08-25T00:46:47.326Z,1.48
2022-08-25T00:49:24.992Z,1.80
2022-08-25T00:51:55.544Z,1.80
2022-08-25T00:54:33.726Z,1.60
2022-08-25T00:57:04.030Z,1.90
2022-08-25T00:59:31.103Z,1.80
2022-08-25T01:01:59.228Z,2.03
2022-08-25T01:04:26.291Z,1.95
2022-08-25T01:06:53.646Z,1.83
2022-08-25T01:09:20.844Z,2.00
2022-08-25T01:11:48.303Z,1.85
2022-08-25T01:14:18.413Z,1.98
2022-08-25T01:16:45.939Z,1.90
2022-08-25T01:19:17.801Z,2.20
2022-08-25T01:21:48.659Z,2.25
2022-08-25T01:24:39.841Z,1.80
2022-08-25T01:27:07.430Z,2.08
2022-08-25T01:29:36.049Z,1.90
2022-08-25T01:32:07.004Z,1.92
2022-08-25T01:34:36.559Z,2.20
2022-08-25T01:37:04.673Z,2.15
2022-08-25T01:39:38.840Z,2.00
2022-08-25T01:42:20.434Z,2.00
2022-08-25T01:49:06.603Z,1.73
2022-08-25T01:51:43.300Z,2.08
2022-08-25T01:54:10.335Z,1.90
2022-08-25T01:56:38.084Z,2.22
2022-08-25T01:59:05.233Z,2.10
2022-08-25T02:01:32.521Z,2.20
2022-08-25T02:03:59.683Z,2.13
2022-08-25T02:06:32.457Z,2.10
2022-08-25T02:09:05.311Z,2.13
2022-08-25T02:11:33.376Z,2.40
2022-08-25T02:14:00.988Z,2.30
2022-08-25T02:16:34.575Z,2.22
2022-08-25T02:19:02.157Z,2.20
2022-08-25T02:21:29.027Z,2.30
2022-08-25T02:23:56.967Z,2.15
2022-08-25T02:26:24.169Z,1.98
2022-08-25T02:28:52.516Z,2.17
2022-08-25T02:31:21.916Z,2.47
2022-08-25T02:33:49.373Z,2.65
2022-08-25T02:36:16.900Z,2.17
2022-08-25T02:38:43.869Z,2.33
2022-08-25T02:41:20.265Z,2.17
2022-08-25T02:43:48.903Z,2.33
2022-08-25T02:46:17.909Z,2.50
2022-08-25T02:48:45.207Z,2.78
2022-08-25T02:51:12.437Z,2.20
2022-08-25T02:53:40.719Z,2.60
2022-08-25T02:56:09.750Z,2.33
2022-08-25T02:58:38.374Z,2.70
2022-08-25T03:01:07.512Z,2.55
2022-08-25T03:03:39.238Z,2.80
2022-08-25T03:06:09.291Z,2.75
2022-08-25T03:08:37.191Z,2.72
2022-08-25T03:11:05.104Z,2.80
2022-08-25T03:13:32.439Z,3.10
2022-08-25T03:16:00.823Z,2.72
2022-08-25T03:18:27.816Z,2.90
2022-08-25T03:20:55.245Z,2.78
2022-08-25T03:23:22.089Z,2.80
2022-08-25T03:26:07.343Z,2.90
2022-08-25T03:28:34.227Z,3.17
2022-08-25T03:31:01.854Z,2.88
2022-08-25T03:33:30.244Z,3.05
2022-08-25T03:35:57.718Z,3.20
2022-08-25T03:38:25.386Z,2.90
2022-08-25T03:40:53.177Z,2.97
2022-08-25T03:43:21.256Z,3.40
2022-08-25T03:45:48.492Z,3.00
2022-08-25T03:48:16.323Z,2.92
2022-08-25T03:50:52.202Z,3.15
2022-08-25T03:53:20.568Z,2.80
2022-08-25T03:55:47.844Z,3.03
2022-08-25T03:58:14.824Z,2.97
2022-08-25T04:00:42.158Z,3.05
2022-08-25T04:03:09.290Z,3.30
2022-08-25T04:05:36.249Z,3.42
2022-08-25T04:08:03.425Z,3.03
2022-08-25T04:10:31.170Z,3.30
2022-08-25T04:12:58.289Z,3.13
2022-08-25T04:15:28.533Z,3.08
2022-08-25T04:17:58.887Z,3.55
2022-08-25T04:20:26.100Z,3.38
2022-08-25T04:22:53.020Z,3.25
2022-08-25T04:25:20.145Z,3.47
2022-08-25T04:27:47.098Z,3.60
2022-08-25T04:30:14.726Z,3.00
2022-08-25T04:32:41.524Z,3.42
2022-08-25T04:35:09.137Z,3.80
2022-08-25T04:37:36.076Z,3.15
2022-08-25T04:40:04.033Z,3.63
2022-08-25T04:42:30.949Z,3.88
2022-08-25T04:44:58.019Z,3.70
2022-08-25T04:47:25.087Z,3.85
2022-08-25T04:49:54.593Z,4.00
2022-08-25T04:52:21.429Z,3.47
2022-08-25T04:54:48.255Z,3.58
2022-08-25T04:57:15.090Z,3.30
2022-08-25T04:59:41.867Z,3.47
2022-08-25T05:02:09.150Z,3.35
2022-08-25T05:04:37.107Z,3.33
2022-08-25T05:07:04.804Z,3.80
2022-08-25T05:09:32.913Z,3.67
2022-08-25T05:12:01.453Z,3.60
2022-08-25T05:14:29.062Z,3.83
2022-08-25T05:16:58.055Z,3.80
2022-08-25T05:19:26.394Z,3.45
2022-08-25T05:21:54.004Z,4.07
2022-08-25T05:24:22.259Z,3.80
2022-08-25T05:26:49.788Z,3.90
2022-08-25T05:29:17.084Z,3.83
2022-08-25T05:31:49.595Z,3.50
2022-08-25T05:34:18.910Z,3.95
2022-08-25T05:36:46.372Z,4.00
2022-08-25T05:39:13.388Z,3.53
2022-08-25T05:41:40.648Z,3.90
2022-08-25T05:44:07.684Z,3.65
2022-08-25T05:46:34.474Z,3.90
2022-08-25T05:49:01.928Z,3.90
2022-08-25T05:51:28.931Z,4.03
2022-08-25T05:53:55.861Z,3.85
2022-08-25T05:56:22.796Z,3.63
2022-08-25T05:58:50.191Z,3.83
2022-08-25T06:01:47.266Z,3.88
2022-08-25T06:04:16.464Z,3.85
2022-08-25T06:06:43.685Z,4.55
2022-08-25T06:09:10.762Z,3.97
2022-08-25T06:11:40.330Z,4.20
2022-08-25T06:14:09.497Z,4.15
2022-08-25T06:16:37.098Z,3.88
2022-08-25T06:19:04.638Z,4.05
2022-08-25T06:21:31.480Z,4.00
2022-08-25T06:23:58.658Z,4.10
2022-08-25T06:26:26.208Z,4.00
2022-08-25T06:28:53.929Z,4.25
2022-08-25T06:31:22.546Z,4.32
2022-08-25T06:33:50.055Z,4.15
2022-08-25T06:36:17.391Z,3.75
2022-08-25T06:38:44.201Z,4.15
2022-08-25T06:41:12.333Z,4.13
2022-08-25T06:43:47.313Z,4.50
2022-08-25T06:46:28.834Z,4.38
2022-08-25T06:49:06.883Z,4.47
2022-08-25T06:51:36.147Z,4.35
2022-08-25T06:54:05.272Z,4.43
2022-08-25T06:56:32.880Z,3.95
2022-08-25T06:59:01.667Z,4.43
2022-08-25T07:01:28.599Z,4.18
2022-08-25T07:04:00.877Z,4.38
2022-08-25T07:06:31.619Z,4.43
2022-08-25T07:08:58.883Z,4.38
2022-08-25T07:11:26.472Z,3.70
2022-08-25T07:13:53.651Z,4.18
2022-08-25T07:16:21.151Z,4.28
2022-08-25T07:18:48.792Z,4.38
2022-08-25T07:21:16.304Z,4.63
2022-08-25T07:23:43.173Z,4.43
2022-08-25T07:26:39.285Z,4.30
2022-08-25T07:29:10.951Z,4.07
2022-08-25T07:31:38.023Z,4.70
2022-08-25T07:34:25.468Z,4.65
2022-08-25T07:36:53.713Z,5.18
2022-08-25T07:39:22.166Z,4.80
2022-08-25T07:41:51.905Z,4.63
2022-08-25T07:44:21.622Z,4.75
2022-08-25T07:46:50.800Z,4.28
2022-08-25T07:49:23.555Z,4.97
2022-08-25T07:52:03.903Z,4.65
2022-08-25T07:54:33.937Z,4.22
2022-08-25T07:57:02.097Z,4.00
2022-08-25T07:59:29.177Z,4.18
2022-08-25T08:01:56.050Z,4.00
2022-08-25T08:04:22.894Z,4.32
2022-08-25T08:06:49.704Z,4.50
2022-08-25T08:09:16.744Z,4.20
2022-08-25T08:11:53.495Z,4.68
2022-08-25T08:14:21.155Z,4.13
2022-08-25T08:16:48.036Z,3.90
2022-08-25T08:19:16.052Z,4.00
2022-08-25T08:21:44.075Z,4.40
2022-08-25T08:24:19.727Z,4.55
2022-08-25T08:26:59.396Z,4.65
2022-08-25T08:29:26.889Z,4.40
2022-08-25T08:31:53.849Z,3.80
2022-08-25T08:34:25.234Z,4.50
2022-08-25T08:36:54.588Z,4.82
2022-08-25T08:39:21.471Z,4.70
2022-08-25T08:42:17.163Z,4.75
2022-08-25T08:44:50.464Z,4.60
2022-08-25T08:47:20.341Z,5.00
2022-08-25T08:50:23.142Z,4.93
2022-08-25T08:53:23.647Z,4.22
2022-08-25T08:55:56.342Z,3.72
2022-08-25T08:58:51.132Z,4.70
2022-08-25T09:01:33.656Z,4.20
2022-08-25T09:04:09.676Z,4.07
2022-08-25T09:06:49.928Z,3.85
2022-08-25T09:09:26.075Z,4.18
2022-08-25T09:12:10.391Z,4.40
2022-08-25T09:14:53.980Z,3.88
2022-08-25T09:17:32.965Z,3.67
2022-08-25T09:20:18.719Z,3.47
2022-08-25T09:23:16.260Z,3.63
2022-08-25T09:26:17.685Z,3.70
2022-08-25T09:29:02.215Z,3.67
2022-08-25T09:31:40.155Z,3.70
2022-08-25T09:34:24.680Z,3.50
2022-08-25T09:36:53.375Z,3.38
2022-08-25T09:39:21.328Z,3.35
2022-08-25T09:41:56.263Z,3.60
2022-08-25T09:44:31.129Z,3.90
2022-08-25T09:47:08.361Z,3.25
2022-08-25T09:49:56.233Z,3.60
2022-08-25T09:52:44.370Z,3.40
2022-08-25T09:55:14.657Z,3.63
2022-08-25T09:57:44.607Z,3.60
2022-08-25T10:00:19.800Z,3.80
2022-08-25T10:03:06.086Z,3.00
2022-08-25T10:05:35.552Z,3.60
2022-08-25T10:08:11.244Z,3.85
2022-08-25T10:10:46.281Z,3.50
2022-08-25T10:13:22.679Z,3.60
2022-08-25T10:16:36.463Z,3.55
2022-08-25T10:19:12.764Z,3.53
2022-08-25T10:21:42.506Z,3.30
2022-08-25T10:24:12.437Z,3.38
2022-08-25T10:26:48.334Z,3.70
2022-08-25T10:29:28.073Z,3.88
2022-08-25T10:32:01.997Z,4.00
2022-08-25T10:35:05.618Z,3.90
2022-08-25T10:37:40.263Z,3.05
2022-08-25T10:40:31.713Z,2.90
2022-08-25T10:43:07.408Z,2.88
2022-08-25T10:45:43.189Z,3.17
2022-08-25T10:48:41.880Z,3.00
2022-08-25T10:51:31.301Z,2.60
2022-08-25T10:54:20.317Z,3.08
2022-08-25T10:57:20.513Z,3.08
2022-08-25T11:00:13.222Z,2.83
2022-08-25T11:03:02.639Z,2.92
2022-08-25T11:05:55.810Z,2.90
2022-08-25T11:08:28.322Z,2.83
2022-08-25T11:11:04.516Z,2.70
2022-08-25T11:14:11.228Z,3.30
2022-08-25T11:16:48.612Z,3.22
2022-08-25T11:19:28.073Z,2.70
2022-08-25T11:22:16.579Z,2.90
2022-08-25T11:25:04.130Z,3.05
2022-08-25T11:28:03.265Z,2.80
2022-08-25T11:30:30.571Z,2.72
2022-08-25T11:32:58.230Z,2.65
2022-08-25T11:35:37.328Z,3.03
2022-08-25T11:38:42.623Z,3.53
2022-08-25T11:41:28.041Z,3.00
2022-08-25T11:44:20.071Z,2.70
2022-08-25T11:47:24.437Z,2.97
2022-08-25T11:50:03.642Z,2.60
2022-08-25T11:52:34.899Z,2.70
2022-08-25T11:55:11.992Z,3.00
2022-08-25T11:57:39.692Z,2.97
2022-08-25T12:00:15.555Z,3.35
2022-08-25T12:02:48.024Z,2.83
2022-08-25T12:05:21.993Z,2.90
2022-08-25T12:08:10.890Z,2.85
2022-08-25T12:11:01.251Z,2.78
2022-08-25T12:13:39.049Z,3.30
2022-08-25T12:16:06.353Z,2.80
2022-08-25T12:18:33.826Z,2.80
2022-08-25T12:21:02.267Z,3.00
2022-08-25T12:24:04.108Z,3.00
2022-08-25T12:26:42.062Z,3.25
2022-08-25T12:29:24.021Z,3.00
2022-08-25T12:32:07.271Z,3.08
2022-08-25T12:34:42.607Z,3.00
2022-08-25T12:37:19.270Z,2.80
2022-08-25T12:39:58.744Z,2.90
2022-08-25T12:42:38.961Z,2.65
2022-08-25T12:45:23.616Z,2.60
2022-08-25T12:47:52.757Z,2.90
2022-08-25T12:50:38.383Z,3.22
2022-08-25T12:53:33.978Z,2.65
2022-08-25T12:56:08.298Z,2.92
2022-08-25T12:59:15.914Z,2.53
2022-08-25T13:01:51.160Z,2.40
2022-08-25T13:04:48.338Z,2.05
2022-08-25T13:07:25.657Z,2.17
2022-08-25T13:10:02.980Z,2.25
2022-08-25T13:12:36.843Z,2.40
2022-08-25T13:15:04.896Z,2.58
2022-08-25T13:17:34.692Z,3.05
2022-08-25T13:20:23.367Z,2.50
2022-08-25T13:25:50.308Z,2.75
2022-08-25T13:28:33.877Z,2.33
2022-08-25T13:31:15.238Z,2.67
2022-08-25T13:33:54.941Z,2.97
2022-08-25T13:36:46.947Z,2.75
2022-08-25T13:39:45.546Z,2.60
2022-08-25T13:42:17.497Z,2.72
2022-08-25T13:44:51.638Z,2.88
2022-08-25T13:47:45.475Z,2.70
2022-08-25T13:50:32.495Z,2.40
2022-08-25T13:53:03.325Z,2.90
2022-08-25T13:55:51.441Z,2.40
2022-08-25T13:58:34.321Z,2.28
2022-08-25T14:01:47.624Z,2.70
2022-08-25T14:04:29.523Z,2.33
2022-08-25T14:07:13.300Z,2.50
2022-08-25T14:09:52.131Z,2.47
2022-08-25T14:12:46.250Z,2.88
2022-08-25T14:15:21.965Z,2.63
2022-08-25T14:18:04.965Z,2.72
2022-08-25T14:20:33.838Z,2.75
2022-08-25T14:23:09.285Z,2.85
2022-08-25T14:25:40.486Z,2.70
2022-08-25T14:28:16.178Z,2.60
2022-08-25T14:30:51.882Z,2.42
2022-08-25T14:33:22.137Z,2.45
2022-08-25T14:35:52.570Z,2.28
2022-08-25T14:38:21.232Z,2.22
2022-08-25T14:40:49.982Z,2.15
2022-08-25T14:43:17.347Z,2.20
2022-08-25T14:45:46.956Z,2.20
2022-08-25T14:48:26.084Z,2.00
2022-08-25T14:50:55.418Z,2.70
2022-08-25T14:53:22.347Z,2.10
2022-08-25T14:55:53.737Z,2.45
2022-08-25T14:58:26.690Z,2.60
2022-08-25T15:00:54.350Z,2.40
2022-08-25T15:03:31.760Z,2.70
2022-08-25T15:06:00.978Z,2.58
2022-08-25T15:08:47.507Z,3.03
2022-08-25T15:11:14.934Z,2.45
2022-08-25T15:13:47.687Z,2.45
2022-08-25T15:16:23.953Z,2.58
2022-08-25T15:19:02.102Z,2.63
2022-08-25T15:21:34.052Z,2.90
2022-08-25T15:24:03.426Z,2.40
2022-08-25T15:26:31.163Z,2.42
2022-08-25T15:28:59.566Z,2.92
2022-08-25T15:31:26.960Z,2.80
2022-08-25T15:33:54.759Z,2.60
2022-08-25T15:36:24.806Z,2.60
2022-08-25T15:38:52.669Z,2.97
2022-08-25T15:41:21.001Z,2.88
2022-08-25T15:43:51.618Z,2.70
2022-08-25T15:46:26.023Z,2.78
2022-08-25T15:48:53.147Z,2.72
2022-08-25T15:51:20.018Z,2.40
2022-08-25T15:53:46.990Z,2.50
2022-08-25T15:56:26.366Z,2.53
2022-08-25T15:58:55.550Z,2.80
2022-08-25T16:01:28.081Z,2.60
2022-08-25T16:03:57.809Z,2.78
2022-08-25T16:06:25.919Z,2.58
2022-08-25T16:08:53.724Z,2.85
2022-08-25T16:11:24.563Z,2.67
2022-08-25T16:13:53.220Z,2.80
2022-08-25T16:16:21.532Z,2.45
2022-08-25T16:18:48.676Z,2.30
2022-08-25T16:21:19.636Z,2.90
2022-08-25T16:23:47.217Z,2.55
2022-08-25T16:26:16.275Z,3.00
2022-08-25T16:28:44.897Z,2.60
2022-08-25T16:31:14.409Z,3.05
2022-08-25T16:36:17.605Z,2.65
2022-08-25T16:38:49.023Z,2.53
2022-08-25T16:41:22.958Z,2.38
2022-08-25T16:43:51.075Z,2.70
2022-08-25T16:46:21.610Z,2.50
2022-08-25T16:48:50.877Z,2.20
2022-08-25T16:51:22.470Z,2.75
2022-08-25T16:54:11.095Z,2.70
2022-08-25T16:56:38.314Z,2.65
2022-08-25T16:59:07.364Z,2.78
2022-08-25T17:01:35.419Z,2.40
2022-08-25T17:04:03.866Z,2.42
2022-08-25T17:06:35.373Z,2.63
2022-08-25T17:09:02.336Z,2.47
2022-08-25T17:11:34.348Z,2.20
2022-08-25T17:14:06.806Z,2.25
2022-08-25T17:16:38.232Z,2.30
2022-08-25T17:19:08.114Z,2.20
2022-08-25T17:21:41.461Z,2.67
2022-08-25T17:24:12.893Z,2.40
2022-08-25T17:26:41.735Z,2.13
2022-08-25T17:29:09.862Z,2.60
2022-08-25T17:31:40.044Z,2.28
2022-08-25T17:34:12.915Z,2.38
2022-08-25T17:36:43.913Z,2.05
2022-08-25T17:39:12.711Z,2.22
2022-08-25T17:41:42.001Z,2.75
2022-08-25T17:44:08.780Z,2.15
2022-08-25T17:46:39.101Z,2.10
2022-08-25T17:49:11.884Z,2.17
2022-08-25T17:51:38.703Z,2.25
2022-08-25T17:54:05.679Z,2.47
2022-08-25T17:56:33.432Z,2.50
2022-08-25T17:59:00.320Z,2.70
2022-08-25T18:01:29.957Z,3.15
2022-08-25T18:03:59.227Z,2.78
2022-08-25T18:06:29.500Z,2.67
2022-08-25T18:08:59.734Z,3.15
2022-08-25T18:11:28.752Z,2.92
2022-08-25T18:13:57.633Z,2.50
2022-08-25T18:16:25.051Z,2.50
2022-08-25T18:18:52.862Z,2.40
2022-08-25T18:21:22.303Z,2.72
2022-08-25T18:23:49.964Z,2.80
2022-08-25T18:26:21.926Z,2.63
2022-08-25T18:28:52.765Z,2.97
2022-08-25T18:31:19.804Z,2.90
2022-08-25T18:33:51.152Z,2.50
2022-08-25T18:36:20.708Z,2.90
2022-08-25T18:39:07.406Z,2.40
2022-08-25T18:41:37.823Z,2.67
2022-08-25T18:44:07.076Z,2.65
2022-08-25T18:46:34.146Z,2.38
2022-08-25T18:49:01.342Z,2.75
2022-08-25T18:51:28.581Z,2.63
2022-08-25T18:54:01.380Z,2.70
2022-08-25T18:56:28.690Z,3.97
2022-08-25T18:58:55.908Z,3.80
2022-08-25T19:01:23.090Z,3.30
2022-08-25T19:03:50.543Z,3.25
2022-08-25T19:06:19.210Z,2.95
2022-08-25T19:08:47.047Z,2.75
2022-08-25T19:11:16.054Z,2.70
2022-08-25T19:13:44.263Z,2.63
2022-08-25T19:16:20.340Z,2.42
2022-08-25T19:18:48.904Z,2.50
2022-08-25T19:21:22.797Z,2.45
2022-08-25T19:23:51.349Z,3.00
2022-08-25T19:26:19.548Z,3.30
2022-08-25T19:28:48.989Z,3.25
2022-08-25T19:31:18.731Z,3.38
2022-08-25T19:33:47.788Z,3.08
2022-08-25T19:36:16.314Z,3.05
2022-08-25T19:38:44.452Z,2.60
2022-08-25T19:41:14.622Z,2.97
2022-08-25T19:43:55.735Z,3.13
2022-08-25T19:46:23.370Z,3.47
2022-08-25T19:48:50.549Z,2.75
2022-08-25T19:51:19.367Z,3.20
2022-08-25T19:53:52.278Z,4.35
2022-08-25T19:56:21.378Z,3.70
2022-08-25T19:58:48.243Z,3.00
2022-08-25T20:01:18.191Z,3.25
2022-08-25T20:03:45.775Z,2.90
2022-08-25T20:06:16.098Z,3.05
2022-08-25T20:08:43.756Z,2.92
2022-08-25T20:11:10.846Z,2.90
2022-08-25T20:13:37.847Z,3.40
2022-08-25T20:16:05.476Z,2.90
2022-08-25T20:18:32.661Z,3.20
2022-08-25T20:21:00.729Z,3.00
2022-08-25T20:23:46.613Z,3.67
2022-08-25T20:26:13.454Z,3.25
2022-08-25T20:28:42.306Z,3.20
2022-08-25T20:31:09.386Z,2.88
2022-08-25T20:33:36.561Z,3.10
2022-08-25T20:36:04.815Z,2.75
2022-08-25T20:38:32.982Z,2.67
2022-08-25T20:41:01.270Z,2.72
2022-08-25T20:43:29.776Z,2.58
2022-08-25T20:46:01.346Z,2.50
2022-08-25T20:48:28.654Z,2.67
2022-08-25T20:50:57.713Z,2.70
2022-08-25T20:53:25.298Z,2.72
2022-08-25T20:55:52.212Z,2.90
2022-08-25T20:58:19.211Z,3.08
2022-08-25T21:00:46.740Z,2.78
2022-08-25T21:03:13.798Z,3.05
2022-08-25T21:05:43.052Z,2.75
2022-08-25T21:08:10.935Z,2.58
2022-08-25T21:10:37.796Z,3.10
2022-08-25T21:13:04.671Z,3.08
2022-08-25T21:15:31.664Z,2.80
2022-08-25T21:17:58.838Z,2.83
2022-08-25T21:20:26.993Z,2.70
2022-08-25T21:22:54.408Z,2.22
2022-08-25T21:25:21.794Z,2.90
2022-08-25T21:27:49.161Z,2.60
2022-08-25T21:30:16.505Z,2.80
2022-08-25T21:32:53.635Z,2.45
2022-08-25T21:35:22.546Z,2.50
2022-08-25T21:37:53.479Z,2.80
2022-08-25T21:40:21.911Z,2.70
2022-08-25T21:42:49.091Z,2.85
2022-08-25T21:45:16.757Z,2.80
2022-08-25T21:47:47.844Z,2.67
2022-08-25T21:50:14.727Z,2.50
2022-08-25T21:52:42.461Z,2.83
2022-08-25T21:55:15.696Z,3.00
2022-08-25T21:57:43.340Z,2.85
2022-08-25T22:00:11.668Z,3.17
2022-08-25T22:02:38.937Z,2.80
2022-08-25T22:05:09.249Z,2.97
2022-08-25T22:07:41.755Z,2.90
2022-08-25T22:10:16.580Z,2.80
2022-08-25T22:12:46.304Z,2.90
2022-08-25T22:15:15.551Z,3.10
2022-08-25T22:17:42.433Z,3.33
2022-08-25T22:20:10.361Z,3.22
2022-08-25T22:22:37.157Z,3.40
2022-08-25T22:25:04.820Z,3.28
2022-08-25T22:27:32.950Z,3.35
2022-08-25T22:30:00.879Z,3.15
2022-08-25T22:32:27.786Z,2.90
2022-08-25T22:34:54.611Z,3.00
2022-08-25T22:37:21.541Z,3.05
2022-08-25T22:39:48.599Z,3.05
2022-08-25T22:42:15.470Z,2.97
2022-08-25T22:44:45.085Z,3.05
2022-08-25T22:47:12.396Z,3.40
2022-08-25T22:49:39.815Z,3.42
2022-08-25T22:52:07.533Z,3.40
2022-08-25T22:54:38.638Z,3.40
2022-08-25T22:57:06.913Z,3.58
2022-08-25T22:59:34.219Z,3.30
2022-08-25T23:02:01.062Z,3.33
2022-08-25T23:04:27.953Z,3.38
2022-08-25T23:06:54.947Z,3.22
2022-08-25T23:09:22.221Z,3.70
2022-08-25T23:11:51.180Z,3.40
2022-08-25T23:14:18.828Z,3.40
2022-08-25T23:16:45.697Z,3.55
2022-08-25T23:19:14.700Z,3.30
2022-08-25T23:22:01.895Z,3.78
2022-08-25T23:24:30.635Z,4.10
2022-08-25T23:26:59.374Z,3.85
2022-08-25T23:29:27.709Z,4.05
2022-08-25T23:31:54.775Z,3.67
2022-08-25T23:34:22.156Z,3.33
2022-08-25T23:36:49.073Z,3.72
2022-08-25T23:39:16.112Z,3.95
2022-08-25T23:41:43.006Z,3.42
2022-08-25T23:44:11.842Z,3.45
2022-08-25T23:46:44.891Z,3.80
2022-08-25T23:49:12.425Z,3.80
2022-08-25T23:51:41.162Z,3.30
2022-08-25T23:54:11.579Z,3.33
2022-08-25T23:56:44.465Z,3.63
2022-08-25T23:59:18.410Z,3.60
